sensor_id;sensor_type;location;lat;lon;timestamp;pressure;altitude;pressure_sealevel;temperature;humidity
35577;BME280;21680;52.400;16.920;2023-10-13T00:02:10;100715.30;;;11.03;100.00
35577;BME280;21680;52.400;16.920;2023-10-13T00:04:36;100714.06;;;11.02;100.00
35577;BME280;21680;52.400;16.920;2023-10-13T00:07:02;100717.01;;;11.04;100.00
35577;BME280;21680;52.400;16.920;2023-10-13T00:09:29;100722.73;;;11.04;100.00
35577;BME280;21680;52.400;16.920;2023-10-13T00:11:58;100721.73;;;11.03;100.00
35577;BME280;21680;52.400;16.920;2023-10-13T00:14:24;100724.96;;;11.07;100.00
35577;BME280;21680;52.400;16.920;2023-10-13T00:16:59;100733.04;;;11.10;100.00
35577;BME280;21680;52.400;16.920;2023-10-13T00:19:38;100735.55;;;11.14;100.00
35577;BME280;21680;52.400;16.920;2023-10-13T00:22:05;100734.08;;;11.15;100.00
35577;BME280;21680;52.400;16.920;2023-10-13T00:24:38;100733.16;;;11.16;100.00
35577;BME280;21680;52.400;16.920;2023-10-13T00:27:18;100732.92;;;11.16;100.00
35577;BME280;21680;52.400;16.920;2023-10-13T00:29:53;100729.14;;;11.21;100.00
35577;BME280;21680;52.400;16.920;2023-10-13T00:32:39;100726.60;;;11.26;100.00
35577;BME280;21680;52.400;16.920;2023-10-13T00:35:08;100728.63;;;11.28;100.00
35577;BME280;21680;52.400;16.920;2023-10-13T00:37:36;100730.60;;;11.32;100.00
35577;BME280;21680;52.400;16.920;2023-10-13T00:40:08;100731.48;;;11.36;100.00
35577;BME280;21680;52.400;16.920;2023-10-13T00:42:43;100730.13;;;11.39;100.00
35577;BME280;21680;52.400;16.920;2023-10-13T00:45:18;100727.48;;;11.34;100.00
35577;BME280;21680;52.400;16.920;2023-10-13T00:47:44;100732.75;;;11.28;100.00
35577;BME280;21680;52.400;16.920;2023-10-13T00:50:22;100728.13;;;11.28;100.00
35577;BME280;21680;52.400;16.920;2023-10-13T00:52:49;100722.91;;;11.25;100.00
35577;BME280;21680;52.400;16.920;2023-10-13T00:55:17;100723.27;;;11.25;100.00
35577;BME280;21680;52.400;16.920;2023-10-13T00:57:43;100720.68;;;11.26;100.00
35577;BME280;21680;52.400;16.920;2023-10-13T01:00:11;100719.65;;;11.25;100.00
35577;BME280;21680;52.400;16.920;2023-10-13T01:02:53;100715.75;;;11.25;100.00
35577;BME280;21680;52.400;16.920;2023-10-13T01:05:25;100716.13;;;11.24;100.00
35577;BME280;21680;52.400;16.920;2023-10-13T01:07:50;100711.76;;;11.22;100.00
35577;BME280;21680;52.400;16.920;2023-10-13T01:10:20;100702.25;;;11.22;100.00
35577;BME280;21680;52.400;16.920;2023-10-13T01:12:46;100695.30;;;11.26;100.00
35577;BME280;21680;52.400;16.920;2023-10-13T01:15:13;100696.73;;;11.30;100.00
35577;BME280;21680;52.400;16.920;2023-10-13T01:17:42;100693.76;;;11.32;100.00
35577;BME280;21680;52.400;16.920;2023-10-13T01:20:11;100692.08;;;11.34;100.00
35577;BME280;21680;52.400;16.920;2023-10-13T01:22:43;100693.80;;;11.35;100.00
35577;BME280;21680;52.400;16.920;2023-10-13T01:25:09;100691.65;;;11.35;100.00
35577;BME280;21680;52.400;16.920;2023-10-13T01:27:38;100690.67;;;11.37;100.00
35577;BME280;21680;52.400;16.920;2023-10-13T01:30:04;100689.42;;;11.37;100.00
35577;BME280;21680;52.400;16.920;2023-10-13T01:32:51;100683.54;;;11.36;100.00
35577;BME280;21680;52.400;16.920;2023-10-13T01:35:20;100679.98;;;11.36;100.00
35577;BME280;21680;52.400;16.920;2023-10-13T01:37:52;100679.23;;;11.37;100.00
35577;BME280;21680;52.400;16.920;2023-10-13T01:40:17;100683.20;;;11.36;100.00
35577;BME280;21680;52.400;16.920;2023-10-13T01:42:46;100678.80;;;11.38;100.00
35577;BME280;21680;52.400;16.920;2023-10-13T01:45:12;100673.10;;;11.42;100.00
35577;BME280;21680;52.400;16.920;2023-10-13T01:47:39;100669.33;;;11.46;100.00
35577;BME280;21680;52.400;16.920;2023-10-13T01:50:06;100667.00;;;11.50;100.00
35577;BME280;21680;52.400;16.920;2023-10-13T01:52:46;100677.06;;;11.49;100.00
35577;BME280;21680;52.400;16.920;2023-10-13T01:55:13;100691.06;;;11.40;100.00
35577;BME280;21680;52.400;16.920;2023-10-13T01:57:42;100698.16;;;11.33;100.00
35577;BME280;21680;52.400;16.920;2023-10-13T02:00:13;100689.04;;;11.34;100.00
35577;BME280;21680;52.400;16.920;2023-10-13T02:02:45;100688.68;;;11.33;100.00
35577;BME280;21680;52.400;16.920;2023-10-13T02:05:16;100687.36;;;11.35;100.00
35577;BME280;21680;52.400;16.920;2023-10-13T02:07:43;100686.71;;;11.37;100.00
35577;BME280;21680;52.400;16.920;2023-10-13T02:10:13;100694.08;;;11.41;100.00
35577;BME280;21680;52.400;16.920;2023-10-13T02:12:38;100699.41;;;11.42;100.00
35577;BME280;21680;52.400;16.920;2023-10-13T02:15:11;100701.39;;;11.45;100.00
35577;BME280;21680;52.400;16.920;2023-10-13T02:17:47;100708.02;;;11.49;100.00
35577;BME280;21680;52.400;16.920;2023-10-13T02:20:17;100700.93;;;11.47;100.00
35577;BME280;21680;52.400;16.920;2023-10-13T02:22:48;100696.87;;;11.46;100.00
35577;BME280;21680;52.400;16.920;2023-10-13T02:25:18;100691.48;;;11.47;100.00
35577;BME280;21680;52.400;16.920;2023-10-13T02:28:01;100682.73;;;11.50;100.00
35577;BME280;21680;52.400;16.920;2023-10-13T02:30:27;100684.87;;;11.54;100.00
35577;BME280;21680;52.400;16.920;2023-10-13T02:32:52;100701.61;;;11.60;100.00
35577;BME280;21680;52.400;16.920;2023-10-13T02:35:20;100707.06;;;11.58;100.00
35577;BME280;21680;52.400;16.920;2023-10-13T02:37:54;100706.15;;;11.58;100.00
35577;BME280;21680;52.400;16.920;2023-10-13T02:40:21;100706.26;;;11.56;100.00
35577;BME280;21680;52.400;16.920;2023-10-13T02:42:48;100704.45;;;11.56;100.00
35577;BME280;21680;52.400;16.920;2023-10-13T02:45:14;100707.92;;;11.55;100.00
35577;BME280;21680;52.400;16.920;2023-10-13T02:47:40;100710.51;;;11.53;100.00
35577;BME280;21680;52.400;16.920;2023-10-13T02:50:08;100704.88;;;11.51;100.00
35577;BME280;21680;52.400;16.920;2023-10-13T02:52:37;100695.52;;;11.52;100.00
35577;BME280;21680;52.400;16.920;2023-10-13T02:55:07;100687.25;;;11.53;100.00
35577;BME280;21680;52.400;16.920;2023-10-13T02:57:35;100682.61;;;11.56;100.00
35577;BME280;21680;52.400;16.920;2023-10-13T03:00:01;100685.30;;;11.60;100.00
35577;BME280;21680;52.400;16.920;2023-10-13T03:02:38;100679.66;;;11.66;100.00
35577;BME280;21680;52.400;16.920;2023-10-13T03:05:10;100679.05;;;11.71;100.00
35577;BME280;21680;52.400;16.920;2023-10-13T03:07:38;100678.64;;;11.76;100.00
35577;BME280;21680;52.400;16.920;2023-10-13T03:10:08;100680.86;;;11.79;100.00
35577;BME280;21680;52.400;16.920;2023-10-13T03:12:38;100679.70;;;11.81;100.00
35577;BME280;21680;52.400;16.920;2023-10-13T03:15:05;100684.56;;;11.84;100.00
35577;BME280;21680;52.400;16.920;2023-10-13T03:17:45;100681.70;;;11.84;100.00
35577;BME280;21680;52.400;16.920;2023-10-13T03:20:12;100675.09;;;11.80;100.00
35577;BME280;21680;52.400;16.920;2023-10-13T03:22:39;100679.17;;;11.77;100.00
35577;BME280;21680;52.400;16.920;2023-10-13T03:25:05;100680.63;;;11.76;100.00
35577;BME280;21680;52.400;16.920;2023-10-13T03:27:33;100688.20;;;11.75;100.00
35577;BME280;21680;52.400;16.920;2023-10-13T03:30:17;100686.14;;;11.73;100.00
35577;BME280;21680;52.400;16.920;2023-10-13T03:32:43;100684.69;;;11.73;100.00
35577;BME280;21680;52.400;16.920;2023-10-13T03:35:20;100683.07;;;11.78;100.00
35577;BME280;21680;52.400;16.920;2023-10-13T03:37:56;100684.71;;;11.81;100.00
35577;BME280;21680;52.400;16.920;2023-10-13T03:40:22;100685.25;;;11.85;100.00
35577;BME280;21680;52.400;16.920;2023-10-13T03:42:54;100678.77;;;11.85;100.00
35577;BME280;21680;52.400;16.920;2023-10-13T03:45:37;100677.60;;;11.87;100.00
35577;BME280;21680;52.400;16.920;2023-10-13T03:48:14;100673.54;;;11.86;100.00
35577;BME280;21680;52.400;16.920;2023-10-13T03:50:58;100676.64;;;11.89;100.00
35577;BME280;21680;52.400;16.920;2023-10-13T03:53:36;100674.13;;;11.88;100.00
35577;BME280;21680;52.400;16.920;2023-10-13T03:56:15;100673.11;;;11.91;100.00
35577;BME280;21680;52.400;16.920;2023-10-13T03:58:41;100673.41;;;11.92;100.00
35577;BME280;21680;52.400;16.920;2023-10-13T04:01:13;100670.35;;;11.93;100.00
35577;BME280;21680;52.400;16.920;2023-10-13T04:03:42;100668.02;;;11.96;100.00
35577;BME280;21680;52.400;16.920;2023-10-13T04:06:23;100666.11;;;11.99;100.00
35577;BME280;21680;52.400;16.920;2023-10-13T04:09:08;100654.75;;;11.97;100.00
35577;BME280;21680;52.400;16.920;2023-10-13T04:11:52;100651.81;;;11.95;100.00
35577;BME280;21680;52.400;16.920;2023-10-13T04:14:39;100654.66;;;11.95;100.00
35577;BME280;21680;52.400;16.920;2023-10-13T04:17:11;100650.79;;;11.97;100.00
35577;BME280;21680;52.400;16.920;2023-10-13T04:19:43;100650.65;;;12.00;100.00
35577;BME280;21680;52.400;16.920;2023-10-13T04:22:39;100647.89;;;12.01;100.00
35577;BME280;21680;52.400;16.920;2023-10-13T04:27:55;100641.46;;;12.05;100.00
35577;BME280;21680;52.400;16.920;2023-10-13T04:30:43;100639.52;;;12.04;100.00
35577;BME280;21680;52.400;16.920;2023-10-13T04:33:22;100636.08;;;12.01;100.00
35577;BME280;21680;52.400;16.920;2023-10-13T04:36:12;100629.89;;;12.00;100.00
35577;BME280;21680;52.400;16.920;2023-10-13T04:38:59;100628.66;;;11.99;100.00
35577;BME280;21680;52.400;16.920;2023-10-13T04:44:09;100630.52;;;11.97;100.00
35577;BME280;21680;52.400;16.920;2023-10-13T04:46:54;100623.73;;;11.97;100.00
35577;BME280;21680;52.400;16.920;2023-10-13T04:49:34;100623.11;;;11.99;100.00
35577;BME280;21680;52.400;16.920;2023-10-13T04:52:02;100622.97;;;12.02;100.00
35577;BME280;21680;52.400;16.920;2023-10-13T04:54:44;100619.26;;;12.05;100.00
35577;BME280;21680;52.400;16.920;2023-10-13T04:57:17;100612.27;;;12.05;100.00
35577;BME280;21680;52.400;16.920;2023-10-13T05:00:01;100621.98;;;12.04;100.00
35577;BME280;21680;52.400;16.920;2023-10-13T05:02:38;100619.48;;;12.03;100.00
35577;BME280;21680;52.400;16.920;2023-10-13T05:05:10;100621.00;;;12.06;100.00
35577;BME280;21680;52.400;16.920;2023-10-13T05:07:50;100616.29;;;12.07;100.00
35577;BME280;21680;52.400;16.920;2023-10-13T05:10:35;100620.58;;;12.07;100.00
35577;BME280;21680;52.400;16.920;2023-10-13T05:13:19;100618.58;;;12.08;100.00
35577;BME280;21680;52.400;16.920;2023-10-13T05:16:03;100616.73;;;12.09;100.00
35577;BME280;21680;52.400;16.920;2023-10-13T05:18:48;100616.14;;;12.10;100.00
35577;BME280;21680;52.400;16.920;2023-10-13T05:21:31;100621.02;;;12.13;100.00
35577;BME280;21680;52.400;16.920;2023-10-13T05:24:15;100621.92;;;12.12;100.00
35577;BME280;21680;52.400;16.920;2023-10-13T05:26:59;100621.66;;;12.11;100.00
35577;BME280;21680;52.400;16.920;2023-10-13T05:29:45;100624.06;;;12.13;100.00
35577;BME280;21680;52.400;16.920;2023-10-13T05:32:30;100624.45;;;12.12;100.00
35577;BME280;21680;52.400;16.920;2023-10-13T05:35:15;100625.67;;;12.12;100.00
35577;BME280;21680;52.400;16.920;2023-10-13T05:38:00;100632.35;;;12.15;100.00
35577;BME280;21680;52.400;16.920;2023-10-13T05:40:52;100633.52;;;12.17;100.00
35577;BME280;21680;52.400;16.920;2023-10-13T05:43:43;100632.89;;;12.19;100.00
35577;BME280;21680;52.400;16.920;2023-10-13T05:46:28;100631.02;;;12.20;100.00
35577;BME280;21680;52.400;16.920;2023-10-13T05:48:54;100630.16;;;12.20;100.00
35577;BME280;21680;52.400;16.920;2023-10-13T05:51:26;100627.13;;;12.19;100.00
35577;BME280;21680;52.400;16.920;2023-10-13T05:54:02;100626.58;;;12.20;100.00
35577;BME280;21680;52.400;16.920;2023-10-13T05:56:54;100628.67;;;12.20;100.00
35577;BME280;21680;52.400;16.920;2023-10-13T05:59:38;100630.13;;;12.20;100.00
35577;BME280;21680;52.400;16.920;2023-10-13T06:02:23;100632.63;;;12.20;100.00
35577;BME280;21680;52.400;16.920;2023-10-13T06:05:10;100635.13;;;12.24;100.00
35577;BME280;21680;52.400;16.920;2023-10-13T06:07:55;100638.11;;;12.29;100.00
35577;BME280;21680;52.400;16.920;2023-10-13T06:10:40;100637.65;;;12.31;100.00
35577;BME280;21680;52.400;16.920;2023-10-13T06:13:24;100637.49;;;12.34;100.00
35577;BME280;21680;52.400;16.920;2023-10-13T06:16:10;100635.08;;;12.35;100.00
35577;BME280;21680;52.400;16.920;2023-10-13T06:18:54;100634.34;;;12.40;100.00
35577;BME280;21680;52.400;16.920;2023-10-13T06:21:39;100636.08;;;12.41;100.00
35577;BME280;21680;52.400;16.920;2023-10-13T06:24:24;100634.77;;;12.41;100.00
35577;BME280;21680;52.400;16.920;2023-10-13T06:27:08;100636.54;;;12.42;100.00
35577;BME280;21680;52.400;16.920;2023-10-13T06:29:52;100636.10;;;12.40;100.00
35577;BME280;21680;52.400;16.920;2023-10-13T06:32:20;100633.13;;;12.42;100.00
35577;BME280;21680;52.400;16.920;2023-10-13T06:34:51;100632.05;;;12.46;100.00
35577;BME280;21680;52.400;16.920;2023-10-13T06:37:23;100638.52;;;12.49;100.00
35577;BME280;21680;52.400;16.920;2023-10-13T06:40:09;100635.67;;;12.48;100.00
35577;BME280;21680;52.400;16.920;2023-10-13T06:42:48;100632.02;;;12.50;100.00
35577;BME280;21680;52.400;16.920;2023-10-13T06:45:13;100635.23;;;12.53;100.00
35577;BME280;21680;52.400;16.920;2023-10-13T06:47:42;100634.61;;;12.58;100.00
35577;BME280;21680;52.400;16.920;2023-10-13T06:50:15;100630.09;;;12.59;100.00
35577;BME280;21680;52.400;16.920;2023-10-13T06:52:44;100634.14;;;12.60;100.00
35577;BME280;21680;52.400;16.920;2023-10-13T06:55:10;100636.95;;;12.61;100.00
35577;BME280;21680;52.400;16.920;2023-10-13T06:57:53;100634.53;;;12.63;100.00
35577;BME280;21680;52.400;16.920;2023-10-13T07:00:25;100632.55;;;12.63;100.00
35577;BME280;21680;52.400;16.920;2023-10-13T07:02:55;100631.95;;;12.64;100.00
35577;BME280;21680;52.400;16.920;2023-10-13T07:05:34;100630.48;;;12.65;100.00
35577;BME280;21680;52.400;16.920;2023-10-13T07:08:00;100626.71;;;12.69;100.00
35577;BME280;21680;52.400;16.920;2023-10-13T07:10:29;100631.30;;;12.74;100.00
35577;BME280;21680;52.400;16.920;2023-10-13T07:12:58;100628.72;;;12.79;100.00
35577;BME280;21680;52.400;16.920;2023-10-13T07:15:25;100626.02;;;12.82;100.00
35577;BME280;21680;52.400;16.920;2023-10-13T07:17:53;100631.54;;;12.83;100.00
35577;BME280;21680;52.400;16.920;2023-10-13T07:20:25;100633.05;;;12.85;100.00
35577;BME280;21680;52.400;16.920;2023-10-13T07:22:59;100631.21;;;12.92;100.00
35577;BME280;21680;52.400;16.920;2023-10-13T07:25:37;100630.41;;;13.00;100.00
35577;BME280;21680;52.400;16.920;2023-10-13T07:28:04;100631.88;;;13.06;100.00
35577;BME280;21680;52.400;16.920;2023-10-13T07:30:30;100625.10;;;13.12;100.00
35577;BME280;21680;52.400;16.920;2023-10-13T07:33:07;100615.23;;;13.15;100.00
35577;BME280;21680;52.400;16.920;2023-10-13T07:35:35;100607.75;;;13.21;100.00
35577;BME280;21680;52.400;16.920;2023-10-13T07:38:02;100602.96;;;13.26;100.00
35577;BME280;21680;52.400;16.920;2023-10-13T07:40:32;100603.35;;;13.32;100.00
35577;BME280;21680;52.400;16.920;2023-10-13T07:43:01;100605.38;;;13.42;100.00
35577;BME280;21680;52.400;16.920;2023-10-13T07:45:29;100605.23;;;13.47;100.00
35577;BME280;21680;52.400;16.920;2023-10-13T07:48:02;100611.36;;;13.50;100.00
35577;BME280;21680;52.400;16.920;2023-10-13T07:50:34;100611.17;;;13.53;100.00
35577;BME280;21680;52.400;16.920;2023-10-13T07:52:59;100605.45;;;13.56;100.00
35577;BME280;21680;52.400;16.920;2023-10-13T07:55:31;100602.39;;;13.59;100.00
35577;BME280;21680;52.400;16.920;2023-10-13T07:58:02;100600.37;;;13.63;100.00
35577;BME280;21680;52.400;16.920;2023-10-13T08:00:34;100593.95;;;13.66;100.00
35577;BME280;21680;52.400;16.920;2023-10-13T08:03:08;100585.23;;;13.67;100.00
35577;BME280;21680;52.400;16.920;2023-10-13T08:05:39;100583.61;;;13.74;100.00
35577;BME280;21680;52.400;16.920;2023-10-13T08:08:20;100591.25;;;13.78;100.00
35577;BME280;21680;52.400;16.920;2023-10-13T08:10:47;100577.89;;;13.79;100.00
35577;BME280;21680;52.400;16.920;2023-10-13T08:13:12;100572.23;;;13.81;100.00
35577;BME280;21680;52.400;16.920;2023-10-13T08:15:42;100570.45;;;13.81;100.00
35577;BME280;21680;52.400;16.920;2023-10-13T08:18:18;100565.42;;;13.84;100.00
35577;BME280;21680;52.400;16.920;2023-10-13T08:20:55;100561.52;;;13.86;100.00
35577;BME280;21680;52.400;16.920;2023-10-13T08:23:27;100560.08;;;13.89;100.00
35577;BME280;21680;52.400;16.920;2023-10-13T08:26:13;100568.48;;;13.93;100.00
35577;BME280;21680;52.400;16.920;2023-10-13T08:28:55;100561.70;;;14.01;100.00
35577;BME280;21680;52.400;16.920;2023-10-13T08:31:20;100558.15;;;14.01;100.00
35577;BME280;21680;52.400;16.920;2023-10-13T08:33:51;100559.85;;;14.03;100.00
35577;BME280;21680;52.400;16.920;2023-10-13T08:36:23;100560.41;;;14.08;100.00
35577;BME280;21680;52.400;16.920;2023-10-13T08:38:56;100554.12;;;14.17;100.00
35577;BME280;21680;52.400;16.920;2023-10-13T08:41:23;100554.94;;;14.24;100.00
35577;BME280;21680;52.400;16.920;2023-10-13T08:43:50;100552.52;;;14.28;100.00
35577;BME280;21680;52.400;16.920;2023-10-13T08:46:16;100554.57;;;14.39;100.00
35577;BME280;21680;52.400;16.920;2023-10-13T08:48:59;100553.67;;;14.49;100.00
35577;BME280;21680;52.400;16.920;2023-10-13T08:51:35;100550.10;;;14.57;100.00
35577;BME280;21680;52.400;16.920;2023-10-13T08:54:14;100550.58;;;14.67;100.00
35577;BME280;21680;52.400;16.920;2023-10-13T08:57:00;100551.13;;;14.78;100.00
35577;BME280;21680;52.400;16.920;2023-10-13T08:59:30;100549.23;;;14.88;100.00
35577;BME280;21680;52.400;16.920;2023-10-13T09:02:12;100541.21;;;14.98;100.00
35577;BME280;21680;52.400;16.920;2023-10-13T09:04:43;100537.73;;;15.10;100.00
35577;BME280;21680;52.400;16.920;2023-10-13T09:07:12;100534.03;;;15.18;100.00
35577;BME280;21680;52.400;16.920;2023-10-13T09:09:51;100536.34;;;15.32;100.00
35577;BME280;21680;52.400;16.920;2023-10-13T09:12:26;100539.45;;;15.45;100.00
35577;BME280;21680;52.400;16.920;2023-10-13T09:14:59;100532.27;;;15.56;100.00
35577;BME280;21680;52.400;16.920;2023-10-13T09:17:48;100532.51;;;15.63;100.00
35577;BME280;21680;52.400;16.920;2023-10-13T09:20:30;100536.27;;;15.67;100.00
35577;BME280;21680;52.400;16.920;2023-10-13T09:23:13;100531.34;;;15.75;100.00
35577;BME280;21680;52.400;16.920;2023-10-13T09:25:49;100534.04;;;15.83;100.00
35577;BME280;21680;52.400;16.920;2023-10-13T09:28:28;100527.59;;;15.94;100.00
35577;BME280;21680;52.400;16.920;2023-10-13T09:30:55;100517.65;;;16.07;100.00
35577;BME280;21680;52.400;16.920;2023-10-13T09:33:27;100514.20;;;16.16;100.00
35577;BME280;21680;52.400;16.920;2023-10-13T09:36:01;100502.55;;;16.25;100.00
35577;BME280;21680;52.400;16.920;2023-10-13T09:38:32;100501.56;;;16.36;100.00
35577;BME280;21680;52.400;16.920;2023-10-13T09:40:58;100504.73;;;16.45;100.00
35577;BME280;21680;52.400;16.920;2023-10-13T09:43:26;100507.74;;;16.56;100.00
35577;BME280;21680;52.400;16.920;2023-10-13T09:46:00;100507.53;;;16.70;100.00
35577;BME280;21680;52.400;16.920;2023-10-13T09:48:37;100502.53;;;16.81;100.00
35577;BME280;21680;52.400;16.920;2023-10-13T09:51:20;100489.54;;;16.89;100.00
35577;BME280;21680;52.400;16.920;2023-10-13T09:54:00;100484.83;;;16.97;100.00
35577;BME280;21680;52.400;16.920;2023-10-13T09:56:42;100478.59;;;17.03;100.00
35577;BME280;21680;52.400;16.920;2023-10-13T09:59:33;100469.30;;;17.12;100.00
35577;BME280;21680;52.400;16.920;2023-10-13T10:02:03;100463.94;;;17.23;100.00
35577;BME280;21680;52.400;16.920;2023-10-13T10:04:54;100460.13;;;17.36;100.00
35577;BME280;21680;52.400;16.920;2023-10-13T10:07:28;100450.86;;;17.44;100.00
35577;BME280;21680;52.400;16.920;2023-10-13T10:09:58;100450.32;;;17.53;100.00
35577;BME280;21680;52.400;16.920;2023-10-13T10:12:29;100443.58;;;17.66;100.00
35577;BME280;21680;52.400;16.920;2023-10-13T10:15:34;100436.98;;;17.77;100.00
35577;BME280;21680;52.400;16.920;2023-10-13T10:18:01;100431.36;;;17.89;100.00
35577;BME280;21680;52.400;16.920;2023-10-13T10:20:35;100427.46;;;17.97;100.00
35577;BME280;21680;52.400;16.920;2023-10-13T10:23:09;100428.48;;;18.11;100.00
35577;BME280;21680;52.400;16.920;2023-10-13T10:25:47;100429.86;;;18.21;100.00
35577;BME280;21680;52.400;16.920;2023-10-13T10:28:13;100422.49;;;18.32;100.00
35577;BME280;21680;52.400;16.920;2023-10-13T10:30:41;100421.63;;;18.45;100.00
35577;BME280;21680;52.400;16.920;2023-10-13T10:33:08;100418.31;;;18.57;100.00
35577;BME280;21680;52.400;16.920;2023-10-13T10:35:46;100411.89;;;18.70;100.00
35577;BME280;21680;52.400;16.920;2023-10-13T10:38:14;100404.40;;;18.82;100.00
35577;BME280;21680;52.400;16.920;2023-10-13T10:41:05;100396.25;;;18.93;100.00
35577;BME280;21680;52.400;16.920;2023-10-13T10:46:10;100395.16;;;19.17;100.00
35577;BME280;21680;52.400;16.920;2023-10-13T10:48:37;100393.03;;;19.21;100.00
35577;BME280;21680;52.400;16.920;2023-10-13T10:51:13;100392.13;;;19.23;100.00
35577;BME280;21680;52.400;16.920;2023-10-13T10:53:52;100392.73;;;19.24;100.00
35577;BME280;21680;52.400;16.920;2023-10-13T10:56:22;100386.35;;;19.23;99.81
35577;BME280;21680;52.400;16.920;2023-10-13T10:58:57;100388.05;;;19.22;99.66
35577;BME280;21680;52.400;16.920;2023-10-13T11:01:23;100381.17;;;19.20;99.31
35577;BME280;21680;52.400;16.920;2023-10-13T11:04:00;100380.13;;;19.21;98.96
35577;BME280;21680;52.400;16.920;2023-10-13T11:06:45;100383.50;;;19.20;98.24
35577;BME280;21680;52.400;16.920;2023-10-13T11:09:11;100378.92;;;19.18;97.78
35577;BME280;21680;52.400;16.920;2023-10-13T11:11:47;100378.16;;;19.21;97.68
35577;BME280;21680;52.400;16.920;2023-10-13T11:14:24;100374.80;;;19.28;97.29
35577;BME280;21680;52.400;16.920;2023-10-13T11:16:51;100369.13;;;19.31;96.62
35577;BME280;21680;52.400;16.920;2023-10-13T11:19:21;100369.37;;;19.32;96.82
35577;BME280;21680;52.400;16.920;2023-10-13T11:22:10;100365.23;;;19.34;96.45
35577;BME280;21680;52.400;16.920;2023-10-13T11:24:44;100360.48;;;19.35;96.01
35577;BME280;21680;52.400;16.920;2023-10-13T11:27:15;100354.48;;;19.35;95.71
35577;BME280;21680;52.400;16.920;2023-10-13T11:30:02;100349.94;;;19.31;94.45
35577;BME280;21680;52.400;16.920;2023-10-13T11:32:37;100348.09;;;19.29;95.11
35577;BME280;21680;52.400;16.920;2023-10-13T11:35:08;100341.67;;;19.28;94.77
35577;BME280;21680;52.400;16.920;2023-10-13T11:37:49;100339.06;;;19.25;94.73
35577;BME280;21680;52.400;16.920;2023-10-13T11:40:23;100331.70;;;19.24;94.82
35577;BME280;21680;52.400;16.920;2023-10-13T11:43:08;100328.80;;;19.28;94.84
35577;BME280;21680;52.400;16.920;2023-10-13T11:45:42;100323.77;;;19.32;94.92
35577;BME280;21680;52.400;16.920;2023-10-13T11:48:39;100317.56;;;19.33;94.60
35577;BME280;21680;52.400;16.920;2023-10-13T11:51:11;100318.18;;;19.32;93.93
35577;BME280;21680;52.400;16.920;2023-10-13T11:53:43;100310.75;;;19.32;94.14
35577;BME280;21680;52.400;16.920;2023-10-13T11:56:10;100307.05;;;19.35;93.80
35577;BME280;21680;52.400;16.920;2023-10-13T11:58:36;100298.95;;;19.36;93.95
35577;BME280;21680;52.400;16.920;2023-10-13T12:01:02;100294.73;;;19.35;93.63
35577;BME280;21680;52.400;16.920;2023-10-13T12:03:43;100294.61;;;19.32;93.53
35577;BME280;21680;52.400;16.920;2023-10-13T12:06:28;100290.60;;;19.38;93.65
35577;BME280;21680;52.400;16.920;2023-10-13T12:09:04;100292.93;;;19.43;93.67
35577;BME280;21680;52.400;16.920;2023-10-13T12:11:46;100286.12;;;19.46;93.46
35577;BME280;21680;52.400;16.920;2023-10-13T12:14:12;100284.36;;;19.50;93.45
35577;BME280;21680;52.400;16.920;2023-10-13T12:16:52;100282.14;;;19.53;93.49
35577;BME280;21680;52.400;16.920;2023-10-13T12:19:24;100281.66;;;19.56;93.52
35577;BME280;21680;52.400;16.920;2023-10-13T12:21:56;100278.05;;;19.62;93.47
35577;BME280;21680;52.400;16.920;2023-10-13T12:24:27;100273.19;;;19.64;93.11
35577;BME280;21680;52.400;16.920;2023-10-13T12:27:08;100270.89;;;19.61;92.80
35577;BME280;21680;52.400;16.920;2023-10-13T12:30:00;100265.98;;;19.59;92.71
35577;BME280;21680;52.400;16.920;2023-10-13T12:32:33;100262.37;;;19.57;92.53
35577;BME280;21680;52.400;16.920;2023-10-13T12:34:59;100259.93;;;19.54;92.40
35577;BME280;21680;52.400;16.920;2023-10-13T12:37:26;100255.85;;;19.55;92.20
35577;BME280;21680;52.400;16.920;2023-10-13T12:40:04;100252.19;;;19.60;92.20
35577;BME280;21680;52.400;16.920;2023-10-13T12:42:49;100245.48;;;19.62;92.06
35577;BME280;21680;52.400;16.920;2023-10-13T12:45:33;100244.73;;;19.58;91.69
35577;BME280;21680;52.400;16.920;2023-10-13T12:48:17;100247.92;;;19.53;91.59
35577;BME280;21680;52.400;16.920;2023-10-13T12:51:01;100249.61;;;19.47;91.49
35577;BME280;21680;52.400;16.920;2023-10-13T12:53:46;100248.11;;;19.44;91.38
35577;BME280;21680;52.400;16.920;2023-10-13T12:56:13;100248.52;;;19.41;91.17
35577;BME280;21680;52.400;16.920;2023-10-13T12:58:38;100246.86;;;19.41;91.07
35577;BME280;21680;52.400;16.920;2023-10-13T13:01:03;100236.89;;;19.41;90.92
35577;BME280;21680;52.400;16.920;2023-10-13T13:03:32;100233.58;;;19.42;90.95
35577;BME280;21680;52.400;16.920;2023-10-13T13:05:58;100220.88;;;19.44;90.89
35577;BME280;21680;52.400;16.920;2023-10-13T13:08:24;100222.23;;;19.45;90.76
35577;BME280;21680;52.400;16.920;2023-10-13T13:10:50;100222.66;;;19.47;90.49
35577;BME280;21680;52.400;16.920;2023-10-13T13:13:15;100221.52;;;19.45;90.09
35577;BME280;21680;52.400;16.920;2023-10-13T13:15:42;100219.59;;;19.42;89.55
35577;BME280;21680;52.400;16.920;2023-10-13T13:18:07;100215.42;;;19.42;89.18